Niota, Illinois
Current Conditions -  °F | °C
As of 2:15 AM on Thursday 27 Nov 2014 (Local Time) from KFSW Reporting Station
Haze Haze  
Wind Chill: 20°   Ceiling: 2100
Heat Index: 28°   Visibility: 4mi
Dew Point: 27°   Wind: 9mph
Humidity: 93%   Direction: 310°NW
Pressure: 30.35"   Gusts: NA
Location:  40.62°N, 91.29°W
Report Text: KFSW 270815Z AUTO 31008KT 4SM BR SCT012 OVC021 M02/M03 A3035 RMK AO2
Loading
Personal Weather Stations






























Interactive Weather Map New forecast layout! Learn more

10-Day Weather Forecast

Advertisements
Track Severe Weather on mobile